Time;durP1;ratioP1;P1;durP2;ratioP2;P2;SDS_P1;SDS_P2;PMS_P1;PMS_P2;Temp;Humidity;BMP_temperature;BMP_pressure;BME280_temperature;BME280_humidity;BME280_pressure;Samples;Min_cycle;Max_cycle;Signal;HPM_P1;HPM_P2
2021/08/20 00:01:04;;;;;;;11.02;9.95;;;16.80;99.90;;;;;;4975755;28;20023;-72
2021/08/20 00:03:32;;;;;;;10.30;9.05;;;17.00;99.90;;;;;;4975504;28;20050;-72
2021/08/20 00:05:59;;;;;;;11.20;9.27;;;17.20;99.90;;;;;;4975379;28;20031;-73
2021/08/20 00:08:26;;;;;;;8.85;7.95;;;17.30;99.90;;;;;;4975518;28;20057;-72
2021/08/20 00:10:54;;;;;;;8.50;7.60;;;17.50;99.90;;;;;;4975422;28;20454;-72
2021/08/20 00:13:21;;;;;;;9.23;7.05;;;17.70;99.90;;;;;;4975645;28;20026;-73
2021/08/20 00:15:48;;;;;;;7.43;6.32;;;17.80;99.90;;;;;;4973658;28;20157;-73
2021/08/20 00:18:16;;;;;;;7.97;6.50;;;17.90;99.90;;;;;;4975181;28;20019;-73
2021/08/20 00:20:43;;;;;;;9.20;6.90;;;18.00;99.90;;;;;;4973808;28;20026;-71
2021/08/20 00:23:10;;;;;;;6.30;5.80;;;18.20;99.90;;;;;;4975165;28;20038;-71
2021/08/20 00:25:38;;;;;;;5.80;5.30;;;18.30;99.60;;;;;;4975095;28;20027;-73
2021/08/20 00:28:05;;;;;;;7.78;4.80;;;18.30;98.90;;;;;;4973650;28;20037;-71
2021/08/20 00:30:33;;;;;;;4.60;3.95;;;18.40;98.00;;;;;;4974987;28;20097;-71
2021/08/20 00:33:00;;;;;;;5.53;4.80;;;18.50;96.80;;;;;;4973284;28;20031;-73
2021/08/20 00:35:27;;;;;;;3.97;3.50;;;18.60;97.00;;;;;;4973325;28;20110;-72
2021/08/20 00:37:55;;;;;;;5.38;4.25;;;18.80;96.90;;;;;;4973482;28;20035;-73
2021/08/20 00:40:22;;;;;;;4.07;2.80;;;18.90;95.80;;;;;;4974771;28;20022;-72
2021/08/20 00:42:51;;;;;;;3.33;2.88;;;19.00;93.10;;;;;;4974651;28;20084;-73
2021/08/20 00:45:18;;;;;;;4.10;3.30;;;19.10;93.20;;;;;;4974735;28;20105;-73
2021/08/20 00:47:45;;;;;;;3.65;3.35;;;19.30;93.40;;;;;;4973123;28;20030;-72
2021/08/20 00:50:13;;;;;;;5.60;3.70;;;19.40;92.50;;;;;;4973218;28;20119;-73
2021/08/20 00:52:40;;;;;;;5.10;3.55;;;19.50;93.40;;;;;;4973256;28;20117;-73
2021/08/20 00:55:13;;;;;;;4.70;3.67;;;19.60;94.30;;;;;;4974442;28;20033;-73
2021/08/20 00:57:47;;;;;;;3.38;2.50;;;19.70;91.90;;;;;;4973296;28;20030;-72
2021/08/20 01:00:16;;;;;;;2.95;2.20;;;19.80;90.40;;;;;;4974667;28;20077;-73
2021/08/20 01:02:45;;;;;;;2.55;2.10;;;19.80;90.00;;;;;;4974556;28;20483;-72
2021/08/20 01:05:14;;;;;;;2.45;2.35;;;19.80;87.70;;;;;;4973071;28;20030;-73
2021/08/20 01:07:41;;;;;;;4.00;3.28;;;20.00;90.60;;;;;;4974337;28;20073;-73
2021/08/20 01:10:11;;;;;;;3.92;2.78;;;20.20;91.70;;;;;;4973203;28;20530;-72
2021/08/20 01:12:38;;;;;;;3.78;3.08;;;20.30;89.70;;;;;;4972955;28;20061;-71
2021/08/20 01:15:06;;;;;;;3.28;3.05;;;20.30;87.20;;;;;;4973982;28;20039;-72
2021/08/20 01:17:33;;;;;;;2.63;2.42;;;20.20;88.30;;;;;;4972777;28;20123;-72
2021/08/20 01:20:06;;;;;;;4.05;3.00;;;20.30;87.80;;;;;;4974321;28;20018;-72
2021/08/20 01:22:33;;;;;;;3.72;3.17;;;20.30;88.20;;;;;;4974264;28;20476;-72
2021/08/20 01:25:01;;;;;;;3.13;2.53;;;20.40;90.20;;;;;;4974299;28;20027;-71
2021/08/20 01:27:30;;;;;;;2.38;2.10;;;20.50;86.00;;;;;;4974170;28;20050;-72
2021/08/20 01:29:57;;;;;;;3.80;2.90;;;20.40;83.70;;;;;;4974307;28;20030;-71
2021/08/20 01:32:26;;;;;;;2.20;2.10;;;20.50;85.70;;;;;;4974441;28;20027;-71
2021/08/20 01:34:53;;;;;;;2.40;2.30;;;20.60;85.80;;;;;;4972691;28;20070;-72
2021/08/20 01:37:21;;;;;;;2.92;2.58;;;20.70;84.50;;;;;;4972600;28;20417;-72
2021/08/20 01:39:48;;;;;;;2.20;2.10;;;20.70;86.10;;;;;;4974010;28;20025;-71
2021/08/20 01:42:15;;;;;;;2.10;2.00;;;20.80;84.10;;;;;;4973953;28;20015;-71
2021/08/20 01:44:43;;;;;;;2.22;2.03;;;20.90;81.50;;;;;;4979210;28;20161;-72
2021/08/20 01:47:11;;;;;;;2.42;2.22;;;20.90;82.10;;;;;;4981058;28;20073;-72
2021/08/20 01:49:39;;;;;;;2.30;2.20;;;20.90;82.80;;;;;;4979916;28;20027;-72
2021/08/20 01:52:07;;;;;;;2.20;2.10;;;20.90;79.60;;;;;;4981175;28;20030;-71
2021/08/20 01:54:34;;;;;;;2.33;2.22;;;21.00;82.60;;;;;;4981114;28;20086;-71
2021/08/20 01:57:02;;;;;;;2.20;2.10;;;21.10;80.60;;;;;;4980767;28;20464;-72
2021/08/20 01:59:29;;;;;;;2.20;2.10;;;21.00;79.30;;;;;;4980865;28;20023;-71
2021/08/20 02:01:56;;;;;;;3.05;2.20;;;21.10;79.50;;;;;;4980538;28;20101;-71
2021/08/20 02:04:26;;;;;;;5.32;2.20;;;21.10;78.80;;;;;;4979469;28;20118;-71
2021/08/20 02:06:53;;;;;;;2.30;2.20;;;21.10;79.90;;;;;;4979161;28;20035;-71
2021/08/20 02:09:20;;;;;;;2.03;1.80;;;21.30;80.50;;;;;;4980685;28;20085;-69
2021/08/20 02:11:50;;;;;;;2.10;2.00;;;21.40;77.90;;;;;;4979013;28;20033;-69
2021/08/20 02:14:18;;;;;;;2.20;2.00;;;21.40;77.60;;;;;;4980477;28;20077;-70
2021/08/20 02:16:46;;;;;;;2.13;2.00;;;21.40;79.50;;;;;;4980033;28;20390;-71
2021/08/20 02:19:13;;;;;;;2.00;1.80;;;21.50;77.90;;;;;;4979923;28;20023;-71
2021/08/20 02:21:41;;;;;;;2.00;1.90;;;21.40;77.90;;;;;;4980263;28;20073;-71
2021/08/20 02:24:08;;;;;;;2.17;2.08;;;21.50;78.60;;;;;;4978898;28;20029;-72
2021/08/20 02:26:36;;;;;;;2.15;2.00;;;21.60;78.50;;;;;;4978724;28;20053;-72
2021/08/20 02:29:03;;;;;;;2.20;2.10;;;21.70;77.50;;;;;;4979936;28;20121;-70
2021/08/20 02:31:30;;;;;;;1.70;1.60;;;21.80;76.70;;;;;;4980523;28;20419;-71
2021/08/20 02:33:58;;;;;;;2.00;1.83;;;21.80;77.10;;;;;;4979498;28;20431;-71
2021/08/20 02:36:25;;;;;;;1.70;1.60;;;21.70;76.10;;;;;;4980215;28;20488;-70
2021/08/20 02:38:52;;;;;;;2.53;1.90;;;21.70;76.40;;;;;;4978772;28;20030;-69
2021/08/20 02:41:20;;;;;;;2.10;2.00;;;21.70;76.80;;;;;;4979868;28;20154;-71
2021/08/20 02:43:48;;;;;;;2.63;1.75;;;21.90;77.90;;;;;;4979796;28;20046;-71
2021/08/20 02:46:16;;;;;;;3.35;2.38;;;22.00;77.40;;;;;;4978432;28;20031;-69
2021/08/20 02:48:43;;;;;;;2.30;2.20;;;22.10;76.10;;;;;;4979838;28;20034;-69
2021/08/20 02:51:12;;;;;;;2.35;2.15;;;22.10;75.70;;;;;;4979882;28;20114;-70
2021/08/20 02:53:40;;;;;;;2.60;2.40;;;22.10;76.20;;;;;;4978393;28;20033;-70
2021/08/20 02:56:08;;;;;;;2.38;2.28;;;22.30;75.80;;;;;;4977110;28;20026;-70
2021/08/20 02:58:36;;;;;;;2.35;2.20;;;22.10;74.70;;;;;;4975381;28;20456;-69
2021/08/20 03:01:03;;;;;;;2.20;2.10;;;22.20;77.80;;;;;;4976787;28;20031;-69
2021/08/20 03:03:31;;;;;;;2.40;2.20;;;22.30;76.90;;;;;;4959101;28;20035;-69
2021/08/20 03:05:58;;;;;;;2.47;2.38;;;22.20;73.50;;;;;;4976532;28;20480;-70
2021/08/20 03:08:25;;;;;;;2.45;2.25;;;22.20;74.40;;;;;;4975225;28;20098;-71
2021/08/20 03:10:53;;;;;;;2.13;2.03;;;22.40;75.50;;;;;;4975080;28;20411;-72
2021/08/20 03:13:20;;;;;;;3.45;2.05;;;22.20;73.60;;;;;;4974996;28;20022;-70
2021/08/20 03:15:47;;;;;;;2.40;2.30;;;22.40;74.90;;;;;;4976282;28;20067;-71
2021/08/20 03:18:15;;;;;;;2.25;2.15;;;22.40;74.20;;;;;;4976261;28;20054;-71
2021/08/20 03:20:42;;;;;;;1.85;1.75;;;22.40;73.50;;;;;;4976296;28;20027;-71
2021/08/20 03:23:09;;;;;;;2.13;2.00;;;22.40;73.60;;;;;;4976633;28;20365;-70
2021/08/20 03:25:36;;;;;;;2.17;2.08;;;22.40;73.90;;;;;;4975095;28;20023;-70
2021/08/20 03:28:06;;;;;;;2.30;2.20;;;22.50;73.40;;;;;;4976185;28;20050;-72
2021/08/20 03:30:35;;;;;;;2.30;2.10;;;22.60;75.40;;;;;;4976173;28;20030;-76
2021/08/20 03:33:03;;;;;;;2.33;2.10;;;22.60;73.20;;;;;;4975305;28;20034;-75
2021/08/20 03:35:31;;;;;;;2.50;2.30;;;22.60;73.80;;;;;;4976227;28;20399;-75
2021/08/20 03:37:58;;;;;;;2.00;1.90;;;22.80;73.60;;;;;;4976321;28;20023;-74
2021/08/20 03:40:27;;;;;;;2.00;1.90;;;22.90;74.80;;;;;;4974860;28;20019;-77
2021/08/20 03:42:56;;;;;;;2.20;2.00;;;22.90;73.90;;;;;;4974395;28;20031;-76
2021/08/20 03:45:23;;;;;;;2.33;1.80;;;23.00;73.10;;;;;;4976216;28;20027;-75
2021/08/20 03:47:51;;;;;;;1.95;1.85;;;23.00;73.70;;;;;;4975859;28;20019;-74
2021/08/20 03:50:18;;;;;;;2.03;1.92;;;23.10;73.80;;;;;;4975877;28;20027;-78
2021/08/20 03:52:45;;;;;;;2.65;2.15;;;23.30;75.40;;;;;;4976099;28;20117;-73
2021/08/20 03:55:13;;;;;;;2.97;2.60;;;23.20;78.80;;;;;;4975837;28;20057;-73
2021/08/20 03:57:40;;;;;;;3.13;2.80;;;23.10;80.90;;;;;;4975935;28;20031;-73
2021/08/20 04:00:08;;;;;;;3.25;2.90;;;23.00;81.40;;;;;;4975713;28;20380;-72
2021/08/20 04:02:35;;;;;;;3.00;2.80;;;22.90;82.50;;;;;;4975622;28;20476;-73
2021/08/20 04:05:03;;;;;;;3.13;2.90;;;22.80;82.40;;;;;;4974422;28;20023;-74
2021/08/20 04:07:30;;;;;;;2.92;2.72;;;22.70;82.30;;;;;;4973813;28;20042;-73
2021/08/20 04:09:57;;;;;;;3.20;2.90;;;22.40;81.40;;;;;;4974577;28;20510;-75
2021/08/20 04:12:25;;;;;;;3.83;3.42;;;22.50;82.10;;;;;;4974107;28;20027;-74
2021/08/20 04:14:52;;;;;;;3.33;3.03;;;22.50;81.10;;;;;;4975352;28;20082;-74
2021/08/20 04:17:19;;;;;;;3.28;3.08;;;22.50;80.00;;;;;;4975545;28;20022;-74
2021/08/20 04:19:47;;;;;;;3.20;2.60;;;22.40;81.90;;;;;;4974231;28;20019;-75
2021/08/20 04:22:14;;;;;;;3.70;3.40;;;22.40;81.10;;;;;;4975569;28;20045;-75
2021/08/20 04:24:42;;;;;;;3.00;2.80;;;22.40;80.60;;;;;;4974112;28;20110;-74
2021/08/20 04:27:10;;;;;;;3.60;2.95;;;22.20;81.70;;;;;;4975544;28;20082;-75
2021/08/20 04:29:39;;;;;;;6.93;3.05;;;22.20;80.70;;;;;;4974028;28;20027;-76
2021/08/20 04:32:07;;;;;;;3.15;2.95;;;22.20;82.10;;;;;;4958477;28;20440;-75
2021/08/20 04:34:34;;;;;;;3.20;2.90;;;22.30;81.60;;;;;;4975454;28;20021;-77
2021/08/20 04:37:02;;;;;;;3.70;3.00;;;22.50;81.80;;;;;;4974346;28;20038;-73
2021/08/20 04:39:29;;;;;;;3.63;2.70;;;22.50;81.40;;;;;;4974028;28;20023;-72
2021/08/20 04:41:56;;;;;;;2.92;2.72;;;22.40;81.70;;;;;;4974153;28;20058;-75
2021/08/20 04:44:24;;;;;;;3.15;2.85;;;22.40;80.10;;;;;;4974417;28;20114;-75
2021/08/20 04:46:51;;;;;;;2.88;2.67;;;22.30;80.70;;;;;;4975690;28;20037;-76
2021/08/20 04:49:18;;;;;;;3.67;2.85;;;22.00;81.30;;;;;;4975591;28;20054;-76
2021/08/20 04:51:46;;;;;;;2.78;2.58;;;22.00;81.70;;;;;;4974153;28;20035;-74
2021/08/20 04:54:13;;;;;;;2.78;2.58;;;21.90;81.60;;;;;;4974315;28;20408;-74
2021/08/20 04:56:41;;;;;;;3.60;2.40;;;21.80;81.70;;;;;;4975621;28;20026;-76
2021/08/20 04:59:08;;;;;;;3.30;2.40;;;21.70;82.00;;;;;;4975092;28;20493;-77
2021/08/20 05:01:36;;;;;;;2.40;2.30;;;21.70;81.60;;;;;;4975518;28;20028;-77
2021/08/20 05:04:03;;;;;;;3.92;2.67;;;21.70;81.80;;;;;;4975479;28;20248;-78
2021/08/20 05:06:34;;;;;;;2.85;2.58;;;21.70;83.00;;;;;;4973783;28;20049;-78
2021/08/20 05:09:09;;;;;;;2.83;2.70;;;21.80;83.70;;;;;;4975042;28;20034;-78
2021/08/20 05:11:37;;;;;;;3.20;2.80;;;21.70;84.00;;;;;;4974261;28;20041;-78
2021/08/20 05:14:04;;;;;;;2.50;2.30;;;21.50;84.60;;;;;;4974789;28;20037;-78
2021/08/20 05:16:32;;;;;;;2.78;2.60;;;21.30;85.40;;;;;;4974813;28;20069;-77
2021/08/20 05:18:59;;;;;;;3.20;3.00;;;21.20;86.50;;;;;;4974183;28;20102;-75
2021/08/20 05:21:27;;;;;;;3.70;2.65;;;21.10;87.20;;;;;;4973643;28;20042;-76
2021/08/20 05:23:54;;;;;;;2.60;2.40;;;21.00;88.70;;;;;;4973859;28;20033;-74
2021/08/20 05:26:21;;;;;;;3.75;2.50;;;20.90;90.20;;;;;;4974758;28;20031;-76
2021/08/20 05:28:49;;;;;;;3.17;2.97;;;20.80;91.10;;;;;;4973324;28;20058;-76
2021/08/20 05:31:16;;;;;;;4.47;2.92;;;20.70;90.90;;;;;;4974738;28;20027;-78
2021/08/20 05:33:43;;;;;;;2.95;2.75;;;20.70;91.40;;;;;;4974999;28;20467;-77
2021/08/20 05:36:11;;;;;;;3.92;2.70;;;20.60;91.30;;;;;;4973277;28;20030;-77
2021/08/20 05:38:38;;;;;;;2.42;2.22;;;20.50;92.40;;;;;;4974831;28;20019;-77
2021/08/20 05:41:05;;;;;;;2.97;2.67;;;20.50;92.90;;;;;;4974863;28;20023;-78
2021/08/20 05:43:33;;;;;;;2.92;2.72;;;20.50;92.90;;;;;;4973272;28;20388;-77
2021/08/20 05:46:01;;;;;;;2.60;2.50;;;20.40;92.70;;;;;;4974728;28;20019;-77
2021/08/20 05:48:28;;;;;;;2.95;2.75;;;20.40;93.20;;;;;;4974460;28;20114;-77
2021/08/20 05:50:56;;;;;;;3.03;2.70;;;20.40;92.90;;;;;;4973374;28;20067;-77
2021/08/20 05:53:23;;;;;;;2.92;2.58;;;20.10;92.40;;;;;;4973620;28;20476;-75
2021/08/20 05:55:51;;;;;;;2.55;2.42;;;20.00;93.10;;;;;;4973433;28;20054;-75
2021/08/20 05:58:19;;;;;;;2.42;2.22;;;19.80;94.50;;;;;;4973478;28;20458;-74
2021/08/20 06:00:49;;;;;;;2.85;2.30;;;19.70;95.00;;;;;;4973187;28;20119;-72
2021/08/20 06:03:23;;;;;;;3.73;2.83;;;19.60;95.80;;;;;;4974255;28;20073;-74
2021/08/20 06:05:50;;;;;;;2.50;2.40;;;19.50;95.60;;;;;;4974281;28;20062;-74
2021/08/20 06:08:18;;;;;;;3.05;2.65;;;19.40;95.60;;;;;;4974437;28;20074;-73
2021/08/20 06:10:47;;;;;;;2.60;2.40;;;19.30;93.90;;;;;;4974242;28;20031;-74
2021/08/20 06:13:15;;;;;;;2.55;2.45;;;19.20;93.40;;;;;;4974358;28;20066;-72
2021/08/20 06:15:43;;;;;;;2.33;2.22;;;19.20;93.30;;;;;;4974054;28;20047;-74
2021/08/20 06:18:10;;;;;;;2.60;2.40;;;19.20;93.40;;;;;;4974383;28;20031;-75
2021/08/20 06:20:38;;;;;;;2.50;2.30;;;19.10;94.10;;;;;;4973076;28;20030;-74
2021/08/20 06:23:05;;;;;;;2.65;2.40;;;19.00;94.90;;;;;;4974334;28;20568;-74
2021/08/20 06:25:32;;;;;;;2.60;2.40;;;19.00;95.50;;;;;;4974362;28;20022;-75
2021/08/20 06:28:00;;;;;;;2.50;2.30;;;19.00;96.00;;;;;;4974176;28;20062;-74
2021/08/20 06:30:27;;;;;;;2.53;2.35;;;18.90;96.40;;;;;;4976476;28;20467;-74
2021/08/20 06:32:54;;;;;;;4.20;2.70;;;18.90;95.60;;;;;;4976688;28;20027;-76
2021/08/20 06:35:22;;;;;;;3.00;2.60;;;18.90;95.80;;;;;;4976513;28;20034;-76
2021/08/20 06:37:49;;;;;;;2.97;2.78;;;18.80;96.00;;;;;;4976325;28;20023;-76
2021/08/20 06:40:17;;;;;;;3.17;2.88;;;18.70;96.20;;;;;;4976971;28;20042;-76
2021/08/20 06:42:44;;;;;;;5.00;2.70;;;18.70;96.50;;;;;;4977958;28;20468;-74
2021/08/20 06:45:11;;;;;;;3.53;3.00;;;18.60;97.00;;;;;;4976343;28;20042;-76
2021/08/20 06:47:39;;;;;;;3.30;3.00;;;18.50;97.60;;;;;;4976236;28;20069;-75
2021/08/20 06:50:07;;;;;;;2.80;2.60;;;18.50;98.00;;;;;;4977950;28;20105;-74
2021/08/20 06:52:34;;;;;;;3.83;3.25;;;18.30;98.70;;;;;;4976313;28;20031;-75
2021/08/20 06:55:01;;;;;;;4.95;3.03;;;18.20;99.20;;;;;;4977659;28;20054;-74
2021/08/20 06:57:29;;;;;;;3.70;2.60;;;18.20;99.70;;;;;;4976395;28;20026;-74
2021/08/20 06:59:57;;;;;;;5.47;3.22;;;18.10;99.60;;;;;;4978013;28;20019;-74
2021/08/20 07:02:24;;;;;;;3.13;2.78;;;18.00;99.80;;;;;;4977632;28;20078;-74
2021/08/20 07:04:51;;;;;;;4.65;2.80;;;18.00;99.90;;;;;;4977492;28;20023;-74
2021/08/20 07:07:19;;;;;;;3.50;3.20;;;17.90;99.90;;;;;;4977549;28;20468;-70
2021/08/20 07:09:46;;;;;;;5.53;4.95;;;17.80;99.90;;;;;;4977026;28;20023;-71
2021/08/20 07:12:13;;;;;;;5.68;3.65;;;17.60;99.90;;;;;;4975684;28;20045;-69
2021/08/20 07:14:41;;;;;;;5.45;3.13;;;17.50;99.90;;;;;;4977363;28;20507;-70
2021/08/20 07:17:08;;;;;;;6.57;3.50;;;17.50;99.90;;;;;;4977229;28;20461;-70
2021/08/20 07:19:35;;;;;;;5.38;3.25;;;17.40;99.90;;;;;;4975728;28;20058;-69
2021/08/20 07:22:03;;;;;;;5.78;3.97;;;17.20;99.90;;;;;;4976086;28;20165;-69
2021/08/20 07:24:30;;;;;;;4.03;3.65;;;17.20;99.90;;;;;;4975618;28;20042;-70
2021/08/20 07:26:57;;;;;;;4.72;3.50;;;17.00;99.90;;;;;;4976949;28;20491;-68
2021/08/20 07:29:25;;;;;;;13.52;10.63;;;17.00;99.90;;;;;;4977108;28;20042;-68
2021/08/20 07:31:52;;;;;;;5.65;4.60;;;16.90;99.90;;;;;;4976872;28;20019;-69
2021/08/20 07:34:19;;;;;;;4.15;3.75;;;16.80;99.90;;;;;;4976814;28;20070;-69
2021/08/20 07:36:47;;;;;;;3.92;3.50;;;16.80;99.90;;;;;;4976208;28;20022;-69
2021/08/20 07:39:14;;;;;;;4.10;3.38;;;16.70;99.90;;;;;;4975740;28;20023;-69
2021/08/20 07:41:41;;;;;;;4.35;3.40;;;16.70;99.90;;;;;;4975966;28;20058;-69
2021/08/20 07:44:14;;;;;;;3.08;2.88;;;16.60;99.90;;;;;;4976874;28;20102;-69
2021/08/20 07:46:44;;;;;;;3.88;3.20;;;16.50;99.90;;;;;;4975381;28;20034;-69
2021/08/20 07:49:11;;;;;;;4.20;3.33;;;16.40;99.90;;;;;;4976474;28;20047;-68
2021/08/20 07:51:39;;;;;;;4.45;2.95;;;16.30;99.90;;;;;;4976728;28;20523;-69
2021/08/20 07:54:06;;;;;;;3.63;3.40;;;16.30;99.90;;;;;;4976689;28;20033;-69
2021/08/20 07:56:34;;;;;;;4.10;3.70;;;16.30;99.90;;;;;;4976339;28;20023;-69
2021/08/20 07:59:01;;;;;;;5.07;4.22;;;16.20;99.90;;;;;;4976459;28;20484;-68
2021/08/20 08:01:28;;;;;;;4.40;4.00;;;16.20;99.90;;;;;;4976359;28;20019;-67
2021/08/20 08:03:59;;;;;;;4.00;3.38;;;16.20;99.90;;;;;;4976631;28;20539;-69
2021/08/20 08:06:27;;;;;;;3.80;3.50;;;16.20;99.90;;;;;;4976477;28;20023;-69
2021/08/20 08:08:54;;;;;;;4.90;4.43;;;16.10;99.90;;;;;;4975990;28;20030;-69
2021/08/20 08:11:21;;;;;;;5.00;4.40;;;16.20;99.90;;;;;;4974552;28;20077;-69
2021/08/20 08:13:49;;;;;;;5.88;5.28;;;16.10;99.90;;;;;;4975981;28;20026;-69
2021/08/20 08:16:16;;;;;;;5.55;4.97;;;16.00;99.90;;;;;;4975801;28;20047;-70
2021/08/20 08:18:44;;;;;;;7.88;5.70;;;16.00;99.90;;;;;;4976002;28;20023;-69
2021/08/20 08:21:11;;;;;;;6.93;5.43;;;15.90;99.90;;;;;;4976534;28;20086;-69
2021/08/20 08:23:40;;;;;;;7.05;6.00;;;15.90;99.90;;;;;;4976022;28;20114;-68
2021/08/20 08:26:07;;;;;;;6.47;5.90;;;15.80;99.90;;;;;;4975940;28;20025;-69
2021/08/20 08:28:35;;;;;;;8.88;6.32;;;15.80;99.90;;;;;;4974305;28;20035;-69
2021/08/20 08:31:02;;;;;;;7.65;6.90;;;15.80;99.90;;;;;;4975646;28;20087;-70
2021/08/20 08:33:30;;;;;;;7.90;6.70;;;15.70;99.90;;;;;;4974261;28;20026;-69
2021/08/20 08:35:57;;;;;;;8.02;7.13;;;15.70;99.90;;;;;;4975450;28;20164;-70
2021/08/20 08:38:24;;;;;;;10.50;7.38;;;15.70;99.90;;;;;;4973981;28;20019;-69
2021/08/20 08:40:52;;;;;;;7.15;6.45;;;15.70;99.90;;;;;;4975563;28;20089;-69
2021/08/20 08:43:19;;;;;;;6.53;5.93;;;15.60;99.90;;;;;;4974008;28;20019;-70
2021/08/20 08:45:47;;;;;;;5.82;5.32;;;15.60;99.90;;;;;;4975366;28;20031;-70
2021/08/20 08:48:15;;;;;;;6.82;5.68;;;15.60;99.90;;;;;;4975638;28;20049;-69
2021/08/20 08:50:47;;;;;;;7.47;5.70;;;15.70;99.90;;;;;;4975635;28;20471;-70
2021/08/20 08:53:16;;;;;;;6.07;5.60;;;15.70;99.90;;;;;;4973760;28;20031;-70
2021/08/20 08:55:47;;;;;;;6.20;5.47;;;15.60;99.90;;;;;;4975052;28;20023;-70
2021/08/20 08:58:14;;;;;;;5.75;5.35;;;15.50;99.90;;;;;;4975286;28;20109;-70
2021/08/20 09:00:42;;;;;;;6.30;5.43;;;15.50;99.90;;;;;;4973871;28;20030;-68
2021/08/20 09:03:29;;;;;;;6.00;5.50;;;15.50;99.90;;;;;;4975215;28;20026;-68
2021/08/20 09:05:59;;;;;;;6.72;5.78;;;15.40;99.90;;;;;;4973693;28;20031;-69
2021/08/20 09:08:27;;;;;;;6.03;5.53;;;15.30;99.90;;;;;;4974991;28;20526;-68
2021/08/20 09:10:55;;;;;;;6.00;5.40;;;15.30;99.90;;;;;;4975132;28;20030;-69
2021/08/20 09:13:24;;;;;;;6.28;4.90;;;15.20;99.90;;;;;;4975190;28;20030;-68
2021/08/20 09:16:12;;;;;;;6.43;5.32;;;15.10;99.90;;;;;;4974741;28;20115;-68
2021/08/20 09:18:40;;;;;;;6.88;5.97;;;15.10;99.90;;;;;;4973438;28;20027;-69
2021/08/20 09:21:15;;;;;;;8.57;6.15;;;15.10;99.90;;;;;;4974856;28;20022;-69
2021/08/20 09:23:42;;;;;;;7.35;6.60;;;15.00;99.90;;;;;;4975159;28;20077;-70
2021/08/20 09:26:10;;;;;;;9.82;8.40;;;14.90;99.90;;;;;;4974959;28;20428;-69
2021/08/20 09:28:37;;;;;;;8.25;7.40;;;14.90;99.90;;;;;;4974786;28;20026;-69
2021/08/20 09:31:11;;;;;;;8.88;8.00;;;14.90;99.90;;;;;;4975150;28;20031;-70
2021/08/20 09:33:44;;;;;;;8.73;7.82;;;14.90;99.90;;;;;;4975007;28;20073;-70
2021/08/20 09:36:23;;;;;;;8.15;7.35;;;14.80;99.90;;;;;;4974501;28;20059;-69
2021/08/20 09:38:58;;;;;;;7.68;6.95;;;14.80;99.90;;;;;;4974984;28;20498;-69
2021/08/20 09:41:31;;;;;;;6.72;6.13;;;14.70;99.90;;;;;;4973444;28;20026;-69
2021/08/20 09:44:07;;;;;;;7.40;6.70;;;14.70;99.90;;;;;;4973521;28;20507;-70
2021/08/20 09:46:45;;;;;;;6.50;6.00;;;14.70;99.90;;;;;;4973168;28;20026;-70
2021/08/20 09:49:16;;;;;;;6.85;6.15;;;14.60;99.90;;;;;;4972925;28;20022;-69
2021/08/20 09:51:49;;;;;;;7.20;6.50;;;14.60;99.90;;;;;;4975189;28;20030;-70
2021/08/20 09:54:26;;;;;;;8.15;7.35;;;14.60;99.90;;;;;;4974662;28;20042;-69
2021/08/20 09:56:54;;;;;;;8.20;7.40;;;14.60;99.90;;;;;;4974563;28;20491;-71
2021/08/20 09:59:27;;;;;;;8.32;7.57;;;14.60;99.90;;;;;;4974217;28;20495;-69
2021/08/20 10:01:56;;;;;;;8.52;7.72;;;14.60;99.90;;;;;;4974813;28;20427;-70
2021/08/20 10:04:23;;;;;;;9.18;8.30;;;14.70;99.90;;;;;;4974521;28;20077;-70
2021/08/20 10:06:51;;;;;;;9.23;8.32;;;14.70;99.90;;;;;;4978061;28;20380;-71
2021/08/20 10:09:22;;;;;;;9.60;8.70;;;14.70;99.90;;;;;;4978042;28;20022;-69
2021/08/20 10:11:50;;;;;;;10.23;9.38;;;14.70;99.90;;;;;;4977982;28;20037;-70
2021/08/20 10:14:29;;;;;;;11.02;9.95;;;14.70;99.90;;;;;;4976138;28;20022;-70
2021/08/20 10:16:56;;;;;;;11.00;10.02;;;14.70;99.90;;;;;;4976357;28;20034;-70
2021/08/20 10:19:24;;;;;;;13.95;11.10;;;14.70;99.90;;;;;;4977825;28;20166;-69
2021/08/20 10:21:51;;;;;;;13.43;11.70;;;14.80;99.90;;;;;;4977406;28;20050;-70
2021/08/20 10:24:18;;;;;;;13.57;12.18;;;14.80;99.90;;;;;;4977507;28;20027;-70
2021/08/20 10:26:54;;;;;;;13.52;11.75;;;14.80;99.90;;;;;;4977303;28;20022;-70
2021/08/20 10:29:30;;;;;;;13.52;12.13;;;14.70;99.90;;;;;;4977454;28;20093;-70
2021/08/20 10:31:59;;;;;;;14.27;12.77;;;14.70;99.90;;;;;;4977205;28;20439;-70
2021/08/20 10:34:37;;;;;;;15.13;12.68;;;14.70;99.90;;;;;;4975898;28;20023;-70
2021/08/20 10:37:05;;;;;;;16.85;14.00;;;14.70;99.90;;;;;;4975672;28;20026;-69
2021/08/20 10:39:33;;;;;;;16.20;14.50;;;14.70;99.90;;;;;;4977061;28;20131;-70
2021/08/20 10:42:12;;;;;;;14.82;13.32;;;14.60;99.90;;;;;;4976924;28;20074;-70
2021/08/20 10:44:43;;;;;;;15.48;13.88;;;14.60;99.90;;;;;;4977778;28;20102;-70
2021/08/20 10:47:26;;;;;;;15.68;14.15;;;14.60;99.90;;;;;;4977343;28;20031;-69
2021/08/20 10:50:19;;;;;;;17.95;15.68;;;14.60;99.90;;;;;;4977543;28;20023;-71
2021/08/20 10:52:51;;;;;;;16.58;14.80;;;14.60;99.90;;;;;;4977230;28;20431;-69
2021/08/20 10:55:24;;;;;;;16.08;14.30;;;14.60;99.90;;;;;;4975914;28;20034;-69
2021/08/20 10:57:52;;;;;;;16.63;14.93;;;14.50;99.90;;;;;;4975583;28;20054;-70
2021/08/20 11:00:22;;;;;;;18.02;16.23;;;14.50;99.90;;;;;;4977189;28;20047;-70
2021/08/20 11:02:51;;;;;;;18.75;16.52;;;14.50;99.90;;;;;;4976993;28;20023;-71
2021/08/20 11:05:19;;;;;;;17.67;15.90;;;14.50;99.90;;;;;;4977027;28;20492;-69
2021/08/20 11:07:47;;;;;;;15.80;14.32;;;14.50;99.90;;;;;;4976900;28;20395;-69
2021/08/20 11:10:15;;;;;;;20.25;18.25;;;14.50;99.90;;;;;;4976425;28;20050;-70
2021/08/20 11:12:48;;;;;;;23.00;18.15;;;14.50;99.90;;;;;;4976342;28;20030;-71
2021/08/20 11:15:25;;;;;;;19.38;17.38;;;14.50;99.90;;;;;;4976130;28;20051;-70
2021/08/20 11:17:59;;;;;;;20.50;18.30;;;14.50;99.90;;;;;;4975572;28;20145;-70
2021/08/20 11:20:41;;;;;;;22.00;19.67;;;14.40;99.90;;;;;;4976448;28;20033;-70
2021/08/20 11:23:14;;;;;;;22.13;19.83;;;14.40;99.90;;;;;;4974947;28;20019;-70
2021/08/20 11:25:57;;;;;;;21.10;18.48;;;14.40;99.90;;;;;;4974781;28;20444;-70
2021/08/20 11:28:55;;;;;;;19.95;18.15;;;14.40;99.90;;;;;;4974816;28;20030;-69
2021/08/20 11:31:22;;;;;;;19.30;17.40;;;14.40;99.90;;;;;;4956513;28;20038;-70
2021/08/20 11:33:50;;;;;;;19.95;17.80;;;14.30;99.90;;;;;;4976089;28;20054;-70
2021/08/20 11:36:22;;;;;;;20.38;17.70;;;14.20;99.90;;;;;;4976095;28;20031;-71
2021/08/20 11:38:58;;;;;;;19.55;17.65;;;14.20;99.90;;;;;;4976411;28;20106;-70
2021/08/20 11:41:48;;;;;;;18.92;17.00;;;14.20;99.90;;;;;;4974638;28;20035;-70
2021/08/20 11:44:16;;;;;;;21.83;19.50;;;14.20;99.90;;;;;;4976454;28;20029;-72
2021/08/20 11:46:46;;;;;;;23.38;21.05;;;14.20;99.90;;;;;;4976375;28;20041;-70
2021/08/20 11:49:25;;;;;;;24.08;21.88;;;14.20;99.90;;;;;;4976478;28;20022;-71
2021/08/20 11:51:52;;;;;;;26.25;23.52;;;14.10;99.90;;;;;;4974676;28;20035;-71
2021/08/20 11:54:20;;;;;;;25.85;23.17;;;14.10;99.90;;;;;;4976417;28;20105;-71
2021/08/20 11:56:55;;;;;;;25.05;22.77;;;14.10;99.90;;;;;;4976453;28;20030;-70
2021/08/20 11:59:23;;;;;;;25.85;23.27;;;14.20;99.90;;;;;;4976700;28;20400;-71
2021/08/20 12:01:58;;;;;;;27.35;24.55;;;14.20;99.90;;;;;;4976012;28;20388;-70
2021/08/20 12:04:25;;;;;;;24.83;22.45;;;14.30;99.90;;;;;;4974477;28;20019;-70
2021/08/20 12:06:55;;;;;;;28.00;25.20;;;14.40;99.90;;;;;;4975976;28;20107;-70
2021/08/20 12:09:23;;;;;;;30.17;27.17;;;14.40;99.90;;;;;;4974588;28;20022;-70
2021/08/20 12:11:53;;;;;;;27.40;24.77;;;14.30;99.90;;;;;;4975604;28;20051;-70
2021/08/20 12:14:23;;;;;;;28.75;25.95;;;14.30;99.90;;;;;;4975468;28;20106;-70
2021/08/20 12:16:52;;;;;;;28.03;25.03;;;14.30;99.90;;;;;;4975668;28;20125;-70
2021/08/20 12:19:30;;;;;;;27.90;25.48;;;14.30;99.90;;;;;;4974286;28;20023;-70
2021/08/20 12:22:13;;;;;;;28.08;25.38;;;14.30;99.90;;;;;;4974443;28;20053;-70
2021/08/20 12:24:48;;;;;;;27.48;24.83;;;14.40;99.90;;;;;;4974546;28;20114;-70
2021/08/20 12:27:17;;;;;;;27.65;24.83;;;14.40;99.90;;;;;;4975183;28;20026;-71
2021/08/20 12:29:59;;;;;;;27.23;24.23;;;14.40;99.90;;;;;;4975420;28;20030;-71
2021/08/20 12:32:29;;;;;;;24.98;22.48;;;14.40;99.90;;;;;;4975680;28;20023;-71
2021/08/20 12:35:01;;;;;;;23.08;20.77;;;14.50;99.90;;;;;;4975145;28;20110;-71
2021/08/20 12:37:31;;;;;;;22.05;20.00;;;14.50;99.90;;;;;;4975292;28;20029;-72
2021/08/20 12:40:13;;;;;;;21.63;19.45;;;14.50;99.90;;;;;;4975367;28;20015;-72
2021/08/20 12:42:45;;;;;;;21.38;19.20;;;14.60;99.90;;;;;;4975393;28;20121;-71
2021/08/20 12:45:21;;;;;;;19.67;17.88;;;14.60;99.90;;;;;;4975118;28;20019;-71
2021/08/20 12:48:09;;;;;;;20.67;18.67;;;14.60;99.90;;;;;;4974271;28;20058;-71
2021/08/20 12:50:38;;;;;;;20.45;18.35;;;14.60;99.90;;;;;;4975042;28;20023;-71
2021/08/20 12:53:11;;;;;;;20.60;18.45;;;14.60;99.90;;;;;;4975093;28;20468;-71